Logo AVAMET
Benvolgut visitant, si us plau, ingressa Recuperar contrasenya
AVAMET paisatges

Pedreguer Patronat

Dades diàries. Acumulats / Últims 30 dies disponibles

Data Temperatura (°C) Humitat rel. (%) Pressió rel. (hPa) Vent (km/h) Precipitació
Mínima Mitjana Màxima Amplitud
tèrmica
Mínima Mitjana Màxima Mínima Mitjana Màxima Predom. Mitjana Ràfega
màxima
Total
(mm)
Índex-n
Mínima Mitjana Màxima Mínima Mitjana Màxima n
0 a 1
P0 max
mm 5'
Dades mensuals acumulades fins l'últim dia disponible
03/2020 6,6 10,9 16,6 14,3 10,7 18,3 26,2 19,6 29 72 96 1.000 1.016 1.027   2,5 51,5 73,4
Dades anuals acumulades fins l'últim dia disponible
2020 2,6 9,4 16,6 13,3 10,7 18,3 26,7 24,1 18 73 96 1.000 1.020 1.034   1,7 62,8 208,0
Últims 30 dies disponibles
31-03-2020 8,3     11,2     14,7 6,4 83 90 93 1.008 1.009 1.012 O 3,5 22,5 5,0
30-03-2020 9,9     12,9     16,4 6,5 58 75 95 1.011 1.012 1.014 SW 2,3 19,3 4,0
29-03-2020 7,6     14,2     20,7 13,1 43 64 84 1.012 1.015 1.018 ESE 2,4 24,1 0,0
28-03-2020 8,7     11,8     16,6 7,9 51 71 86 1.015 1.017 1.019 NW 2,3 17,7 0,0
27-03-2020 8,0     9,4     10,7 2,7 77 89 93 1.011 1.013 1.016 WSW 1,8 17,7 5,2
26-03-2020 6,6     10,8     15,8 9,2 48 76 93 1.007 1.009 1.013 NNW 1,6 17,7 0,0
25-03-2020 8,3     10,0     12,1 3,8 70 84 96 1.014 1.015 1.017 WSW 1,8 20,9 9,8
24-03-2020 12,1     13,2     14,2 2,1 72 85 92 1.013 1.015 1.016 NE 4,8 33,8 6,6
23-03-2020 10,9     13,4     16,6 5,7 80 90 95 1.013 1.015 1.016 ENE 1,9 24,1 14,0
22-03-2020 10,3     12,3     14,6 4,3 83 91 94 1.010 1.012 1.014 WSW 1,1 14,5 4,2
21-03-2020 11,2     12,6     13,3 2,1 88 92 94 1.011 1.013 1.016 NNW 0,8 11,3 7,8
20-03-2020 11,4     13,4     15,0 3,6 79 86 93 1.016 1.017 1.019 N 1,0 16,1 0,2
19-03-2020 12,8     14,2     16,9 4,1 76 87 92 1.019 1.021 1.024 N 1,6 19,3 0,0
18-03-2020 12,9     13,7     14,7 1,8 84 90 94 1.024 1.025 1.027 NNW 2,6 22,5 0,0
17-03-2020 9,4     11,9     14,2 4,8 92 94 94 1.019 1.023 1.027 NNW 1,3 19,3 9,6
16-03-2020 9,6     12,7     17,2 7,6 73 87 93 1.010 1.013 1.019 ENE 0,8 19,3 5,8
15-03-2020 10,2     14,2     18,6 8,4 58 79 93 1.013 1.016 1.019 ENE 2,1 27,4 0,0
14-03-2020 10,7     15,1     20,7 10,0 66 82 90 1.017 1.019 1.021 ENE 1,9 19,3 0,0
13-03-2020 12,6     14,6     17,8 5,2 72 85 91 1.017 1.018 1.020 NW 1,9 19,3 0,0
12-03-2020 11,1     16,7     23,4 12,3 40 70 88 1.015 1.018 1.022 ENE 0,5 12,9 0,0
11-03-2020 10,7     17,8     26,2 15,5 38 63 88 1.020 1.022 1.023 ENE 1,3 19,3 0,0
10-03-2020 9,8     14,8     19,9 10,1 52 66 81 1.022 1.023 1.026 SE 2,4 22,5 0,0
09-03-2020 12,4     16,7     22,6 10,2 32 52 82 1.019 1.021 1.023 SW 1,8 19,3 0,0
08-03-2020 8,8     14,9     21,0 12,2 40 58 82 1.019 1.022 1.024 SSW 1,4 20,9 0,0
07-03-2020 11,1     14,1     19,3 8,2 33 44 60 1.019 1.021 1.023 WSW 4,5 35,4 0,0
06-03-2020 12,5     14,8     17,8 5,3 30 47 66 1.011 1.014 1.020 WSW 4,7 38,6 0,0
05-03-2020 16,6     19,7     24,7 8,1 41 49 56 1.007 1.010 1.015 WSW 5,5 38,6 0,0
04-03-2020 15,9     19,7     24,1 8,2 44 56 71 1.015 1.016 1.018 SW 3,7 24,1 0,0
03-03-2020 10,6     16,2     21,9 11,3 41 48 60 1.009 1.014 1.017 WSW 4,2 37,0 0,0
02-03-2020 11,5     18,6     23,3 11,8 29 45 74 1.000 1.006 1.016 WSW 7,1 51,5 1,2
Últims 13 mesos disponibles
02/2020 6,2 9,8 13,8 14,6 14,0 20,4 26,7 20,5 39 72 89 1.013 1.024 1.032 ESE 1,3 29,0 6,6
01/2020 2,6 7,6 14,6 11,2 12,1 16,3 22,4 19,8 61 64 67 1.021 1.021 1.021 WSW 1,3 62,8 128,0
12/2019 7,3 10,4 17,4 13,7 13,1 18,3 24,3 17,0 SW 1,3 46,7 178,8
11/2019 6,2 11,9 21,3 15,4 15,1 19,6 27,1 20,9 SW 2,6 40,2 11,0
10/2019 9,8 15,7 19,6 19,8 16,4 24,8 31,7 21,9 SW 1,1 32,2 90,4
09/2019 13,9 19,5 23,0 23,3 22,9 27,7 34,2 20,3 ESE 1,4 51,5 168,0
08/2019 18,4 22,3 26,9 26,8 27,4 32,2 39,2 20,8 NNW 2,2 46,7 64,0
07/2019 20,8 22,6 27,7 27,6 30,3 33,4 40,3 19,5 ESE 2,6 41,8 0,4
06/2019 14,0 17,7 22,2 22,8 23,1 28,3 37,3 23,3 ESE 3,0 43,5 1,0
05/2019 9,3 14,1 21,0 18,9 19,4 24,1 30,8 21,5 ESE 2,5 40,2 9,8
04/2019 8,8 11,4 13,8 15,3 13,8 19,7 28,6 19,8 ESE 2,3 38,6 285,4
03/2019 6,8 9,5 14,6 14,5 12,7 20,0 28,8 22,0 ESE 2,1 37,0 22,8
02/2019 3,6 7,6 11,1 12,0 13,0 17,4 23,3 19,7 WSW 2,0 49,9 0,6
Tots els anys disponibles
2019 2,2 14,2 27,7 18,5 11,7 23,5 40,3 38,1 SW 2,1 51,5 838,8
2018 5,7 11,7 18,4 15,3 11,8 20,2 28,6 22,9 SW 1,2 48,3 268,2
2017 0,3 15,0 26,9 19,6 8,0 24,7 37,3 37,0 2,2 64,4 583,6
2016 2,2 14,6 25,8 18,8 12,6 23,7 39,6 37,4 2,3 53,1 449,0
2015 1,6 14,4 21,1 18,7 22,4 24,2 41,4 39,8 2,5 61,2 493,2
2014 1,1 14,8 25,2 19,1 9,8 24,5 38,2 37,1 3,0 49,9 184,4
2013 1,3 13,8 16,9 18,2 18,7 23,5 37,0 35,7 3,3 53,1 626,0
2012 0,2 13,9 20,7 18,4 21,7 23,9 41,7 41,5 2,2 45,1 649,0
2011 -0,5 14,1 24,3 18,2 6,6 23,2 38,6 39,1 2,2 49,9 721,4
2010 -0,3 13,6 25,1 17,9 5,8 22,4 40,6 40,9 43 67 95 4,6 174,0 934,0
2009 0,7 14,5 26,0 18,5 5,3 23,1 38,0 37,3 4,9 77,2 1.203,4
2008 4,2 14,2 17,8 22,0 37,2 33,0 5,0 64,4 885,4
2007 3,1 14,4 24,4 18,0 9,4 22,1 36,4 33,3 4,8 74,0 1.421,4
2006 0,0 14,8 18,8 22,7 36,2 36,2 5,1 61,2 776,6
Temperatura (°C)
Humitat relativa (%)
Velocitat del vent i ràfega màxima (km/h)
Direcció del vent (°)
Pressió (hPa)
Precipitació (mm)
Nota sobre les dades: s'avisa a l'usuari de la provisionalitat i no oficialitat d'aquestes dades
Logo AVAMET blanc
Web allotjada a Sollutia
Llicència de Creative CommonsLa web d'AVAMET i els seus continguts estan subjectes a una llicència de
Reconeixement - No Comercial - Compartir igual
Últimes estacions:  Altea - Com. Regants (Soci), Almoines (Inforatge), Beniparrell (Inforatge), Albal (Inforatge), Almussafes - Parc Industrial (Inforatge), La Vilavella (Soci), la Serratella (soci) - - -